Byars, Oklahoma
Current Conditions -  °F | °C
As of 10:15 PM on Wednesday 24 Dec 2014 (Local Time) from KPVJ Reporting Station
Clear Clear  
Wind Chill: 30°   Ceiling: Unl
Heat Index: 34°   Visibility: 10mi
Dew Point: 27°   Wind: 5mph
Humidity: 75%   Direction: 170°S
Pressure: 29.95"   Gusts: NA
Location:  34.87°N, 97.05°W
Report Text: KPVJ 250415Z AUTO 17004KT 10SM CLR 01/M03 A2995 RMK AO2 T00121027
Loading
Personal Weather Stations






























Interactive Weather Map New forecast layout! Learn more

10-Day Weather Forecast

Advertisements
Track Severe Weather on mobile